createdAt,value
2022-12-11T00:00:58.560Z,101025.63
2022-12-11T00:03:28.984Z,101014.59
2022-12-11T00:05:57.806Z,101003.41
2022-12-11T00:08:26.677Z,101010.31
2022-12-11T00:10:55.620Z,101007.69
2022-12-11T00:13:24.484Z,101004.31
2022-12-11T00:15:53.817Z,101003.19
2022-12-11T00:18:22.671Z,101001.63
2022-12-11T00:20:53.221Z,101002.44
2022-12-11T00:23:24.843Z,101004.25
2022-12-11T00:25:54.012Z,101004.09
2022-12-11T00:28:24.465Z,101003.34
2022-12-11T00:30:53.372Z,100992.94
2022-12-11T00:33:22.521Z,100992.00
2022-12-11T00:35:52.605Z,100998.16
2022-12-11T00:38:24.191Z,100990.50
2022-12-11T00:40:53.398Z,100927.63
2022-12-11T00:43:24.370Z,100994.84
2022-12-11T00:45:53.290Z,100993.91
2022-12-11T00:48:22.355Z,100999.06
2022-12-11T00:50:52.977Z,100979.50
2022-12-11T00:53:21.715Z,100992.25
2022-12-11T00:55:50.743Z,100992.22
2022-12-11T00:58:19.692Z,100983.66
2022-12-11T01:00:50.025Z,100982.75
2022-12-11T01:03:19.111Z,100981.13
2022-12-11T01:05:55.661Z,100981.19
2022-12-11T01:08:24.697Z,100980.34
2022-12-11T01:11:00.777Z,100987.09
2022-12-11T01:13:29.614Z,100991.34
2022-12-11T01:15:58.386Z,100987.06
2022-12-11T01:18:28.557Z,100988.81
2022-12-11T01:20:58.732Z,100980.19
2022-12-11T01:23:28.346Z,100993.03
2022-12-11T01:25:57.414Z,100992.25
2022-12-11T01:28:26.206Z,100998.13
2022-12-11T01:30:54.974Z,100990.47
2022-12-11T01:33:23.758Z,100995.41
2022-12-11T01:35:52.748Z,100974.16
2022-12-11T01:38:23.027Z,100992.94
2022-12-11T01:40:54.148Z,101000.56
2022-12-11T01:43:22.995Z,100992.09
2022-12-11T01:45:52.025Z,100995.31
2022-12-11T01:48:24.835Z,100989.38
2022-12-11T01:50:56.999Z,100983.53
2022-12-11T01:53:31.002Z,100990.44
2022-12-11T01:56:00.939Z,100995.63
2022-12-11T01:58:33.516Z,100981.03
2022-12-11T02:01:03.854Z,100989.50
2022-12-11T02:03:33.310Z,100993.09
2022-12-11T02:06:02.937Z,100981.91
2022-12-11T02:08:35.749Z,100978.56
2022-12-11T02:11:12.990Z,100956.22
2022-12-11T02:13:48.235Z,100979.19
2022-12-11T02:16:23.825Z,100973.25
2022-12-11T02:19:01.734Z,100975.94
2022-12-11T02:21:36.939Z,100968.28
2022-12-11T02:24:25.109Z,100969.13
2022-12-11T02:27:19.634Z,100959.06
2022-12-11T02:29:56.946Z,100965.78
2022-12-11T02:32:36.644Z,100971.78
2022-12-11T02:35:13.507Z,100970.03
2022-12-11T02:37:46.144Z,100973.41
2022-12-11T02:40:18.215Z,100969.00
2022-12-11T02:42:50.048Z,100968.03
2022-12-11T02:45:22.779Z,100957.84
2022-12-11T02:47:53.709Z,100961.16
2022-12-11T02:50:24.656Z,100957.84
2022-12-11T02:52:56.909Z,100957.03
2022-12-11T02:55:28.322Z,100955.16
2022-12-11T02:58:05.515Z,100981.00
2022-12-11T03:00:36.343Z,100940.97
2022-12-11T03:03:05.520Z,100944.34
2022-12-11T03:05:34.439Z,100942.63
2022-12-11T03:08:03.726Z,100946.91
2022-12-11T03:10:35.046Z,100929.84
2022-12-11T03:13:06.900Z,100938.38
2022-12-11T03:15:47.877Z,100940.06
2022-12-11T03:18:22.571Z,100917.09
2022-12-11T03:21:03.086Z,100941.00
2022-12-11T03:23:39.333Z,100918.56
2022-12-11T03:26:12.570Z,100934.09
2022-12-11T03:28:48.497Z,100928.19
2022-12-11T03:31:22.561Z,100922.22
2022-12-11T03:33:55.474Z,100926.53
2022-12-11T03:36:31.447Z,100923.97
2022-12-11T03:39:04.099Z,100912.09
2022-12-11T03:41:35.417Z,100924.91
2022-12-11T03:44:04.675Z,100926.53
2022-12-11T03:46:37.979Z,100929.13
2022-12-11T03:49:10.533Z,100929.91
2022-12-11T03:51:40.172Z,100928.22
2022-12-11T03:54:10.007Z,100923.94
2022-12-11T03:56:42.058Z,100923.97
2022-12-11T03:59:11.257Z,100920.50
2022-12-11T04:01:41.767Z,100924.75
2022-12-11T04:04:10.995Z,100797.88
2022-12-11T04:06:41.923Z,100925.44
2022-12-11T04:09:10.748Z,100927.97
2022-12-11T04:11:39.710Z,100924.66
2022-12-11T04:14:28.323Z,100921.31
2022-12-11T04:17:02.229Z,100917.00
2022-12-11T04:19:48.975Z,100916.28
2022-12-11T04:22:37.224Z,100908.47
2022-12-11T04:25:09.921Z,100913.69
2022-12-11T04:27:51.234Z,100905.16
2022-12-11T04:30:24.682Z,100908.47
2022-12-11T04:32:57.623Z,100915.34
2022-12-11T04:35:26.570Z,100907.69
2022-12-11T04:37:55.625Z,100906.84
2022-12-11T04:40:24.945Z,100908.56
2022-12-11T04:42:59.150Z,100911.13
2022-12-11T04:45:28.003Z,100905.16
2022-12-11T04:48:00.773Z,100905.00
2022-12-11T04:50:29.845Z,100913.66
2022-12-11T04:52:58.762Z,100865.88
2022-12-11T04:55:28.249Z,100913.59
2022-12-11T04:58:00.081Z,100917.81
2022-12-11T05:00:28.859Z,100926.34
2022-12-11T05:02:58.345Z,100914.56
2022-12-11T05:05:28.590Z,100922.19
2022-12-11T05:07:57.536Z,100920.47
2022-12-11T05:10:28.921Z,100921.19
2022-12-11T05:13:03.333Z,100922.13
2022-12-11T05:15:32.214Z,100929.72
2022-12-11T05:18:01.856Z,100922.94
2022-12-11T05:20:32.547Z,100916.94
2022-12-11T05:23:01.333Z,100924.72
2022-12-11T05:25:30.061Z,100918.63
2022-12-11T05:27:59.377Z,100917.81
2022-12-11T05:30:30.676Z,100904.97
2022-12-11T05:32:59.445Z,100905.75
2022-12-11T05:35:28.622Z,100919.56
2022-12-11T05:38:02.446Z,100910.06
2022-12-11T05:40:31.379Z,100911.72
2022-12-11T05:43:00.195Z,100910.00
2022-12-11T05:45:28.983Z,100892.94
2022-12-11T05:47:57.806Z,100903.81
2022-12-11T05:50:29.215Z,100904.88
2022-12-11T05:52:57.957Z,100901.59
2022-12-11T05:55:27.955Z,100905.06
2022-12-11T05:57:56.625Z,100916.97
2022-12-11T06:00:31.497Z,100910.03
2022-12-11T06:03:03.553Z,100904.84
2022-12-11T06:05:32.332Z,100905.84
2022-12-11T06:08:01.108Z,100906.91
2022-12-11T06:10:33.388Z,100907.84
2022-12-11T06:13:02.917Z,100813.53
2022-12-11T06:15:31.597Z,100911.13
2022-12-11T06:18:00.340Z,100910.97
2022-12-11T06:20:31.788Z,100913.53
2022-12-11T06:23:00.811Z,100911.03
2022-12-11T06:25:33.358Z,100913.72
2022-12-11T06:28:02.887Z,100907.78
2022-12-11T06:30:38.510Z,100907.78
2022-12-11T06:33:09.000Z,100912.00
2022-12-11T06:35:41.956Z,100894.97
2022-12-11T06:38:11.642Z,100911.97
2022-12-11T06:40:44.101Z,100906.91
2022-12-11T06:43:15.634Z,100908.69
2022-12-11T06:45:46.509Z,100903.50
2022-12-11T06:48:18.087Z,100910.25
2022-12-11T06:50:47.012Z,100906.13
2022-12-11T06:53:17.239Z,100913.72
2022-12-11T06:55:50.826Z,100904.38
2022-12-11T06:58:19.823Z,100903.50
2022-12-11T07:00:48.685Z,100908.59
2022-12-11T07:03:19.620Z,100900.78
2022-12-11T07:05:48.282Z,100909.22
2022-12-11T07:08:17.658Z,100913.41
2022-12-11T07:10:46.370Z,100916.88
2022-12-11T07:13:16.827Z,100922.16
2022-12-11T07:15:50.560Z,100919.56
2022-12-11T07:18:22.049Z,100918.72
2022-12-11T07:20:50.790Z,100921.19
2022-12-11T07:23:25.424Z,100916.97
2022-12-11T07:25:54.825Z,100914.41
2022-12-11T07:28:25.047Z,100913.75
2022-12-11T07:30:54.198Z,100920.56
2022-12-11T07:33:25.381Z,100928.38
2022-12-11T07:35:54.595Z,100923.19
2022-12-11T07:38:23.287Z,100925.72
2022-12-11T07:40:52.267Z,100911.19
2022-12-11T07:43:21.947Z,100907.81
2022-12-11T07:45:52.248Z,100915.56
2022-12-11T07:48:23.303Z,100920.72
2022-12-11T07:50:51.957Z,100919.72
2022-12-11T07:53:20.586Z,100931.53
2022-12-11T07:55:49.528Z,100920.41
2022-12-11T07:58:21.317Z,100933.34
2022-12-11T08:01:03.454Z,100938.56
2022-12-11T08:03:32.681Z,100925.09
2022-12-11T08:06:03.889Z,100925.16
2022-12-11T08:08:33.090Z,100946.47
2022-12-11T08:11:02.223Z,100946.44
2022-12-11T08:13:31.514Z,100931.06
2022-12-11T08:16:04.987Z,100953.13
2022-12-11T08:18:38.910Z,100945.47
2022-12-11T08:21:12.494Z,100942.84
2022-12-11T08:23:47.021Z,100956.41
2022-12-11T08:26:19.596Z,100949.66
2022-12-11T08:28:50.897Z,100946.25
2022-12-11T08:31:23.523Z,100939.38
2022-12-11T08:33:53.489Z,100939.53
2022-12-11T08:36:23.245Z,100939.59
2022-12-11T08:38:55.026Z,100942.13
2022-12-11T08:41:26.447Z,100943.69
2022-12-11T08:43:55.979Z,100943.50
2022-12-11T08:46:28.618Z,100943.44
2022-12-11T08:48:58.517Z,100934.84
2022-12-11T08:51:29.032Z,100933.19
2022-12-11T08:54:02.035Z,100936.75
2022-12-11T08:56:33.284Z,100944.47
2022-12-11T08:59:02.915Z,100938.59
2022-12-11T09:01:33.261Z,100939.28
2022-12-11T09:04:02.004Z,100925.75
2022-12-11T09:06:31.846Z,100946.84
2022-12-11T09:09:02.115Z,100942.69
2022-12-11T09:11:34.025Z,100936.72
2022-12-11T09:14:07.939Z,100934.03
2022-12-11T09:16:41.571Z,100932.56
2022-12-11T09:19:14.256Z,100940.91
2022-12-11T09:21:45.057Z,100939.91
2022-12-11T09:24:17.219Z,100937.47
2022-12-11T09:26:47.426Z,100942.47
2022-12-11T09:29:16.109Z,100930.41
2022-12-11T09:31:49.814Z,100902.38
2022-12-11T09:34:18.460Z,100929.06
2022-12-11T09:36:51.059Z,100935.63
2022-12-11T09:39:20.516Z,100927.97
2022-12-11T09:42:01.453Z,100926.38
2022-12-11T09:44:36.224Z,100909.97
2022-12-11T09:47:28.703Z,100918.44
2022-12-11T09:50:05.759Z,100923.16
2022-12-11T09:52:38.552Z,100908.38
2022-12-11T09:55:15.805Z,100906.28
2022-12-11T09:57:53.365Z,100917.47
2022-12-11T10:00:28.589Z,100922.69
2022-12-11T10:03:28.154Z,100916.03
2022-12-11T10:06:05.088Z,100905.84
2022-12-11T10:08:44.938Z,100911.75
2022-12-11T10:11:40.105Z,100918.63
2022-12-11T10:14:21.018Z,100916.94
2022-12-11T10:16:55.681Z,100914.38
2022-12-11T10:19:31.391Z,100911.94
2022-12-11T10:22:03.086Z,100917.13
2022-12-11T10:27:32.210Z,100911.09
2022-12-11T10:30:07.134Z,100911.97
2022-12-11T10:32:48.677Z,100913.53
2022-12-11T10:35:31.145Z,100909.19
2022-12-11T10:38:14.597Z,100910.06
2022-12-11T10:40:46.566Z,100905.53
2022-12-11T10:43:16.059Z,100887.84
2022-12-11T10:45:53.165Z,100898.16
2022-12-11T10:48:25.797Z,100891.06
2022-12-11T10:51:02.399Z,100884.34
2022-12-11T10:53:32.762Z,100893.75
2022-12-11T10:56:02.134Z,100894.59
2022-12-11T10:58:34.615Z,100891.25
2022-12-11T11:01:09.643Z,100885.28
2022-12-11T11:03:54.003Z,100887.09
2022-12-11T11:06:25.805Z,100888.75
2022-12-11T11:08:57.246Z,100807.75
2022-12-11T11:11:33.856Z,100883.44
2022-12-11T11:14:16.442Z,100881.88
2022-12-11T11:16:47.105Z,100843.38
2022-12-11T11:19:23.789Z,100883.41
2022-12-11T11:21:58.794Z,100877.31
2022-12-11T11:24:36.043Z,100874.00
2022-12-11T11:27:14.177Z,100872.25
2022-12-11T11:29:51.559Z,100881.38
2022-12-11T11:32:24.925Z,100878.75
2022-12-11T11:34:53.951Z,100875.34
2022-12-11T11:37:30.232Z,100870.78
2022-12-11T11:40:08.137Z,100877.06
2022-12-11T11:42:46.896Z,100874.66
2022-12-11T11:45:22.113Z,100877.13
2022-12-11T11:47:59.904Z,100873.63
2022-12-11T11:50:34.926Z,100871.88
2022-12-11T11:53:11.589Z,100871.06
2022-12-11T11:55:50.568Z,100871.09
2022-12-11T11:58:24.352Z,100870.34
2022-12-11T12:00:55.368Z,100861.47
2022-12-11T12:03:26.651Z,100863.34
2022-12-11T12:05:59.128Z,100834.53
2022-12-11T12:08:43.178Z,100864.47
2022-12-11T12:11:23.565Z,100816.56
2022-12-11T12:14:01.595Z,100861.84
2022-12-11T12:16:52.827Z,100858.41
2022-12-11T12:19:38.870Z,100857.53
2022-12-11T12:22:22.316Z,100859.03
2022-12-11T12:25:02.168Z,100859.94
2022-12-11T12:27:55.783Z,100858.44
2022-12-11T12:30:24.806Z,100858.44
2022-12-11T12:33:07.051Z,100860.06
2022-12-11T12:35:38.385Z,100878.03
2022-12-11T12:38:12.455Z,100862.63
2022-12-11T12:40:55.690Z,100862.63
2022-12-11T12:44:02.508Z,100856.69
2022-12-11T12:46:46.014Z,100857.59
2022-12-11T12:49:18.176Z,100722.56
2022-12-11T12:51:52.356Z,100855.97
2022-12-11T12:54:23.383Z,100852.41
2022-12-11T12:56:53.658Z,100855.00
2022-12-11T12:59:24.411Z,100851.34
2022-12-11T13:01:58.741Z,100841.19
2022-12-11T13:04:58.414Z,100844.63
2022-12-11T13:07:29.925Z,100829.38
2022-12-11T13:10:06.863Z,100835.47
2022-12-11T13:12:48.343Z,100819.28
2022-12-11T13:15:39.074Z,100838.66
2022-12-11T13:18:34.972Z,100834.44
2022-12-11T13:21:29.221Z,100831.06
2022-12-11T13:24:16.369Z,100843.72
2022-12-11T13:26:49.209Z,100846.28
2022-12-11T13:29:33.101Z,100829.44
2022-12-11T13:32:23.089Z,100844.78
2022-12-11T13:34:56.542Z,100803.78
2022-12-11T13:37:30.280Z,100854.03
2022-12-11T13:40:00.245Z,100856.50
2022-12-11T13:42:34.770Z,100810.78
2022-12-11T13:45:22.600Z,100857.47
2022-12-11T13:47:53.630Z,100853.25
2022-12-11T13:50:27.325Z,100838.84
2022-12-11T13:52:57.788Z,100854.16
2022-12-11T13:55:28.680Z,100887.63
2022-12-11T13:57:58.459Z,100860.16
2022-12-11T14:00:33.431Z,100862.69
2022-12-11T14:03:08.397Z,100856.78
2022-12-11T14:05:37.472Z,100858.41
2022-12-11T14:08:10.491Z,100865.31
2022-12-11T14:10:41.197Z,100857.66
2022-12-11T14:13:18.969Z,100863.75
2022-12-11T14:15:49.182Z,100858.41
2022-12-11T14:18:24.077Z,100867.03
2022-12-11T14:20:57.356Z,100856.94
2022-12-11T14:23:27.896Z,100854.28
2022-12-11T14:25:58.737Z,100854.66
2022-12-11T14:28:30.685Z,100835.03
2022-12-11T14:31:03.500Z,100857.44
2022-12-11T14:33:35.516Z,100862.50
2022-12-11T14:36:05.786Z,100855.91
2022-12-11T14:38:38.391Z,100862.84
2022-12-11T14:41:14.551Z,100860.19
2022-12-11T14:43:49.702Z,100865.38
2022-12-11T14:46:24.900Z,100849.16
2022-12-11T14:49:01.059Z,100859.38
2022-12-11T14:51:34.485Z,100862.88
2022-12-11T14:54:05.699Z,100866.41
2022-12-11T14:56:35.146Z,100869.75
2022-12-11T14:59:09.267Z,100873.16
2022-12-11T15:01:39.769Z,100873.19
2022-12-11T15:04:23.354Z,100877.31
2022-12-11T15:06:53.032Z,100881.78
2022-12-11T15:09:26.068Z,100878.25
2022-12-11T15:11:57.885Z,100884.19
2022-12-11T15:14:29.828Z,100878.38
2022-12-11T15:17:00.086Z,100892.03
2022-12-11T15:19:32.398Z,100883.41
2022-12-11T15:22:04.915Z,100882.59
2022-12-11T15:24:40.074Z,100872.25
2022-12-11T15:27:25.104Z,100880.03
2022-12-11T15:29:54.260Z,100878.28
2022-12-11T15:32:25.583Z,100874.00
2022-12-11T15:34:56.390Z,100881.66
2022-12-11T15:37:28.509Z,100875.75
2022-12-11T15:39:58.980Z,100890.25
2022-12-11T15:42:30.295Z,100874.13
2022-12-11T15:45:03.094Z,100880.91
2022-12-11T15:47:34.145Z,100885.28
2022-12-11T15:50:14.476Z,100891.22
2022-12-11T15:52:43.457Z,100886.94
2022-12-11T15:55:12.683Z,100879.22
2022-12-11T15:57:47.155Z,100893.72
2022-12-11T16:00:20.371Z,100885.94
2022-12-11T16:02:51.787Z,100891.84
2022-12-11T16:05:21.661Z,100896.94
2022-12-11T16:07:52.295Z,100878.28
2022-12-11T16:10:22.116Z,100893.63
2022-12-11T16:12:50.791Z,100896.19
2022-12-11T16:15:23.801Z,100892.78
2022-12-11T16:18:03.094Z,100896.13
2022-12-11T16:20:32.963Z,100900.59
2022-12-11T16:23:01.861Z,100889.47
2022-12-11T16:25:31.754Z,100892.78
2022-12-11T16:28:02.990Z,100898.81
2022-12-11T16:30:32.405Z,100899.91
2022-12-11T16:33:08.530Z,100894.03
2022-12-11T16:35:42.646Z,100899.75
2022-12-11T16:38:12.532Z,100893.22
2022-12-11T16:40:41.740Z,100890.50
2022-12-11T16:43:11.118Z,100893.19
2022-12-11T16:45:40.278Z,100882.06
2022-12-11T16:48:12.837Z,100898.16
2022-12-11T16:50:41.983Z,100890.56
2022-12-11T16:53:13.316Z,100895.72
2022-12-11T16:55:42.556Z,100893.06
2022-12-11T16:58:18.006Z,100894.91
2022-12-11T17:00:50.031Z,100896.69
2022-12-11T17:03:20.385Z,100893.97
2022-12-11T17:05:51.426Z,100891.50
2022-12-11T17:08:20.122Z,100894.88
2022-12-11T17:10:52.325Z,100897.47
2022-12-11T17:13:21.477Z,100897.53
2022-12-11T17:15:53.711Z,100898.28
2022-12-11T17:18:23.812Z,100902.53
2022-12-11T17:20:53.607Z,100895.72
2022-12-11T17:23:22.859Z,100901.66
2022-12-11T17:25:51.961Z,100896.47
2022-12-11T17:28:20.737Z,100898.09
2022-12-11T17:30:50.191Z,100900.66
2022-12-11T17:33:19.012Z,100899.03
2022-12-11T17:35:49.412Z,100897.28
2022-12-11T17:38:20.966Z,100893.84
2022-12-11T17:40:49.673Z,100898.97
2022-12-11T17:43:21.363Z,100899.81
2022-12-11T17:45:52.974Z,100887.00
2022-12-11T17:48:23.221Z,100898.84
2022-12-11T17:50:54.124Z,100901.38
2022-12-11T17:53:26.424Z,100902.25
2022-12-11T17:55:56.414Z,100905.56
2022-12-11T17:58:25.628Z,100891.88
2022-12-11T18:00:57.628Z,100903.00
2022-12-11T18:03:26.986Z,100907.38
2022-12-11T18:06:05.614Z,100718.88
2022-12-11T18:08:34.402Z,100900.66
2022-12-11T18:11:06.692Z,100911.78
2022-12-11T18:13:35.986Z,100899.06
2022-12-11T18:16:07.751Z,100910.94
2022-12-11T18:18:38.763Z,100914.34
2022-12-11T18:21:09.380Z,100909.25
2022-12-11T18:23:40.648Z,100911.72
2022-12-11T18:26:14.682Z,100915.19
2022-12-11T18:28:43.817Z,100900.72
2022-12-11T18:31:13.642Z,100916.09
2022-12-11T18:33:44.547Z,100894.84
2022-12-11T18:36:16.646Z,100910.03
2022-12-11T18:38:46.391Z,100913.28
2022-12-11T18:41:16.798Z,100911.53
2022-12-11T18:43:45.677Z,100911.06
2022-12-11T18:46:19.537Z,100913.56
2022-12-11T18:48:50.692Z,100913.59
2022-12-11T18:51:24.137Z,100910.28
2022-12-11T18:53:52.977Z,100910.34
2022-12-11T18:56:23.061Z,100907.72
2022-12-11T18:58:52.856Z,100907.66
2022-12-11T19:01:24.823Z,100906.66
2022-12-11T19:04:04.237Z,100912.56
2022-12-11T19:06:36.308Z,100905.69
2022-12-11T19:09:07.645Z,100909.03
2022-12-11T19:11:39.449Z,100910.97
2022-12-11T19:14:12.280Z,100901.44
2022-12-11T19:16:45.305Z,100911.75
2022-12-11T19:19:22.380Z,100909.34
2022-12-11T19:21:52.497Z,100898.19
2022-12-11T19:24:23.355Z,100912.91
2022-12-11T19:26:52.735Z,100907.88
2022-12-11T19:29:23.541Z,100912.00
2022-12-11T19:31:52.862Z,100909.22
2022-12-11T19:34:25.228Z,100916.88
2022-12-11T19:36:58.058Z,100913.63
2022-12-11T19:39:27.591Z,100912.84
2022-12-11T19:42:00.899Z,100909.16
2022-12-11T19:44:29.716Z,100906.06
2022-12-11T19:46:58.989Z,100910.22
2022-12-11T19:49:27.711Z,100906.09
2022-12-11T19:51:57.941Z,100891.66
2022-12-11T19:54:27.959Z,100912.91
2022-12-11T19:56:59.719Z,100915.50
2022-12-11T19:59:30.725Z,100912.66
2022-12-11T20:01:59.614Z,100910.13
2022-12-11T20:04:30.538Z,100911.72
2022-12-11T20:07:01.433Z,100911.97
2022-12-11T20:09:33.718Z,100909.50
2022-12-11T20:12:03.478Z,100910.25
2022-12-11T20:14:32.554Z,100916.06
2022-12-11T20:17:12.116Z,100912.75
2022-12-11T20:19:43.763Z,100904.56
2022-12-11T20:22:13.852Z,100914.69
2022-12-11T20:24:44.870Z,100909.50
2022-12-11T20:27:14.034Z,100916.31
2022-12-11T20:29:42.771Z,100911.25
2022-12-11T20:32:14.386Z,100912.84
2022-12-11T20:34:43.594Z,100905.19
2022-12-11T20:37:17.279Z,100900.06
2022-12-11T20:39:47.154Z,100904.28
2022-12-11T20:42:15.903Z,100909.41
2022-12-11T20:44:49.263Z,100911.13
2022-12-11T20:47:19.869Z,100918.22
2022-12-11T20:49:50.378Z,100919.13
2022-12-11T20:52:21.331Z,100924.91
2022-12-11T20:54:50.926Z,100917.06
2022-12-11T20:57:19.912Z,100943.75
2022-12-11T20:59:51.476Z,100928.19
2022-12-11T21:02:21.097Z,100928.28
2022-12-11T21:04:50.580Z,100929.19
2022-12-11T21:07:21.330Z,100928.25
2022-12-11T21:09:50.062Z,100935.78
2022-12-11T21:12:21.526Z,100930.75
2022-12-11T21:14:50.924Z,100933.19
2022-12-11T21:17:19.905Z,100929.00
2022-12-11T21:19:51.725Z,100939.50
2022-12-11T21:22:22.198Z,100928.56
2022-12-11T21:24:52.990Z,100915.75
2022-12-11T21:27:27.634Z,100829.97
2022-12-11T21:29:56.474Z,100925.22
2022-12-11T21:32:25.231Z,100925.69
2022-12-11T21:34:57.311Z,100923.22
2022-12-11T21:37:27.410Z,100921.50
2022-12-11T21:40:00.408Z,100925.19
2022-12-11T21:42:29.374Z,100922.44
2022-12-11T21:47:49.203Z,100914.84
2022-12-11T21:50:18.114Z,100922.34
2022-12-11T21:52:50.624Z,100920.69
2022-12-11T21:55:19.737Z,100922.59
2022-12-11T21:57:50.931Z,100931.66
2022-12-11T22:00:22.534Z,100925.88
2022-12-11T22:02:53.901Z,100926.75
2022-12-11T22:05:22.837Z,100937.72
2022-12-11T22:07:56.051Z,100937.00
2022-12-11T22:10:26.425Z,100944.59
2022-12-11T22:12:57.988Z,100941.28
2022-12-11T22:15:26.751Z,100948.25
2022-12-11T22:17:55.421Z,100941.44
2022-12-11T22:20:26.705Z,100956.84
2022-12-11T22:22:56.872Z,100936.28
2022-12-11T22:25:26.207Z,100949.91
2022-12-11T22:27:54.894Z,100950.72
2022-12-11T22:30:23.886Z,100949.06
2022-12-11T22:32:53.102Z,100951.56
2022-12-11T22:35:27.128Z,100944.75
2022-12-11T22:37:57.910Z,100948.94
2022-12-11T22:40:27.228Z,100959.16
2022-12-11T22:42:55.949Z,100954.91
2022-12-11T22:45:25.254Z,100959.44
2022-12-11T22:47:56.290Z,100951.63
2022-12-11T22:50:25.457Z,100951.38
2022-12-11T22:52:54.171Z,100954.13
2022-12-11T22:55:28.843Z,100954.00
2022-12-11T22:57:59.973Z,100952.47
2022-12-11T23:00:28.875Z,100944.00
2022-12-11T23:02:58.042Z,100955.03
2022-12-11T23:05:26.778Z,100951.50
2022-12-11T23:07:55.846Z,100957.69
2022-12-11T23:10:24.822Z,100948.00
2022-12-11T23:12:57.619Z,100954.91
2022-12-11T23:15:26.327Z,100957.56
2022-12-11T23:17:55.190Z,100954.19
2022-12-11T23:20:24.295Z,100955.81
2022-12-11T23:22:52.946Z,100952.63
2022-12-11T23:25:21.767Z,100916.75
2022-12-11T23:27:53.191Z,100959.25
2022-12-11T23:30:24.012Z,100959.44
2022-12-11T23:32:53.135Z,100955.97
2022-12-11T23:35:22.184Z,100953.41
2022-12-11T23:37:56.928Z,100958.56
2022-12-11T23:40:25.671Z,100967.97
2022-12-11T23:42:54.297Z,100963.41
2022-12-11T23:45:24.930Z,100964.22
2022-12-11T23:47:53.673Z,100939.63
2022-12-11T23:50:22.298Z,100966.06
2022-12-11T23:52:53.656Z,100803.56
2022-12-11T23:55:22.240Z,100967.72
2022-12-11T23:57:50.997Z,100959.91
